sensor_id;sensor_type;location;lat;lon;timestamp;P1;durP1;ratioP1;P2;durP2;ratioP2
79478;SDS011;68943;49.472;17.970;2023-04-15T00:00:03;0.88;;;0.60;;
79478;SDS011;68943;49.472;17.970;2023-04-15T00:02:30;1.00;;;0.90;;
79478;SDS011;68943;49.472;17.970;2023-04-15T00:04:56;0.90;;;0.90;;
79478;SDS011;68943;49.472;17.970;2023-04-15T00:07:22;1.17;;;0.88;;
79478;SDS011;68943;49.472;17.970;2023-04-15T00:09:48;1.58;;;0.90;;
79478;SDS011;68943;49.472;17.970;2023-04-15T00:12:19;1.20;;;0.85;;
79478;SDS011;68943;49.472;17.970;2023-04-15T00:14:45;1.23;;;0.90;;
79478;SDS011;68943;49.472;17.970;2023-04-15T00:17:12;1.23;;;0.80;;
79478;SDS011;68943;49.472;17.970;2023-04-15T00:19:38;1.42;;;1.23;;
79478;SDS011;68943;49.472;17.970;2023-04-15T00:22:04;1.77;;;1.10;;
79478;SDS011;68943;49.472;17.970;2023-04-15T00:24:31;1.60;;;1.10;;
79478;SDS011;68943;49.472;17.970;2023-04-15T00:26:57;1.35;;;0.98;;
79478;SDS011;68943;49.472;17.970;2023-04-15T00:29:24;1.38;;;1.27;;
79478;SDS011;68943;49.472;17.970;2023-04-15T00:31:50;1.77;;;1.35;;
79478;SDS011;68943;49.472;17.970;2023-04-15T00:34:16;1.92;;;1.30;;
79478;SDS011;68943;49.472;17.970;2023-04-15T00:36:42;2.30;;;1.48;;
79478;SDS011;68943;49.472;17.970;2023-04-15T00:39:08;1.73;;;1.13;;
79478;SDS011;68943;49.472;17.970;2023-04-15T00:41:34;1.83;;;1.50;;
79478;SDS011;68943;49.472;17.970;2023-04-15T00:44:03;1.60;;;1.42;;
79478;SDS011;68943;49.472;17.970;2023-04-15T00:46:30;2.70;;;1.73;;
79478;SDS011;68943;49.472;17.970;2023-04-15T00:48:56;1.63;;;1.33;;
79478;SDS011;68943;49.472;17.970;2023-04-15T00:51:22;2.67;;;1.25;;
79478;SDS011;68943;49.472;17.970;2023-04-15T00:53:49;2.03;;;1.77;;
79478;SDS011;68943;49.472;17.970;2023-04-15T00:56:16;1.75;;;1.25;;
79478;SDS011;68943;49.472;17.970;2023-04-15T00:58:42;2.88;;;1.73;;
79478;SDS011;68943;49.472;17.970;2023-04-15T01:01:08;1.70;;;1.35;;
79478;SDS011;68943;49.472;17.970;2023-04-15T01:03:34;1.98;;;1.83;;
79478;SDS011;68943;49.472;17.970;2023-04-15T01:06:00;3.33;;;2.05;;
79478;SDS011;68943;49.472;17.970;2023-04-15T01:08:27;1.90;;;1.63;;
79478;SDS011;68943;49.472;17.970;2023-04-15T01:10:54;2.28;;;1.48;;
79478;SDS011;68943;49.472;17.970;2023-04-15T01:13:21;2.50;;;1.30;;
79478;SDS011;68943;49.472;17.970;2023-04-15T01:15:48;2.88;;;1.52;;
79478;SDS011;68943;49.472;17.970;2023-04-15T01:18:14;1.85;;;1.65;;
79478;SDS011;68943;49.472;17.970;2023-04-15T01:20:40;3.03;;;1.50;;
79478;SDS011;68943;49.472;17.970;2023-04-15T01:23:06;1.70;;;1.30;;
79478;SDS011;68943;49.472;17.970;2023-04-15T01:25:32;1.80;;;1.45;;
79478;SDS011;68943;49.472;17.970;2023-04-15T01:27:59;1.70;;;1.40;;
79478;SDS011;68943;49.472;17.970;2023-04-15T01:30:25;2.03;;;1.30;;
79478;SDS011;68943;49.472;17.970;2023-04-15T01:32:51;1.85;;;1.58;;
79478;SDS011;68943;49.472;17.970;2023-04-15T01:35:18;1.88;;;1.02;;
79478;SDS011;68943;49.472;17.970;2023-04-15T01:37:45;2.38;;;1.38;;
79478;SDS011;68943;49.472;17.970;2023-04-15T01:40:11;1.50;;;1.33;;
79478;SDS011;68943;49.472;17.970;2023-04-15T01:42:38;2.35;;;1.70;;
79478;SDS011;68943;49.472;17.970;2023-04-15T01:45:04;2.00;;;1.48;;
79478;SDS011;68943;49.472;17.970;2023-04-15T01:47:31;2.20;;;1.50;;
79478;SDS011;68943;49.472;17.970;2023-04-15T01:49:57;2.65;;;1.88;;
79478;SDS011;68943;49.472;17.970;2023-04-15T01:52:23;2.55;;;1.70;;
79478;SDS011;68943;49.472;17.970;2023-04-15T01:54:49;2.10;;;1.60;;
79478;SDS011;68943;49.472;17.970;2023-04-15T01:57:16;3.00;;;2.70;;
79478;SDS011;68943;49.472;17.970;2023-04-15T01:59:42;2.20;;;1.63;;
79478;SDS011;68943;49.472;17.970;2023-04-15T02:02:08;2.70;;;1.45;;
79478;SDS011;68943;49.472;17.970;2023-04-15T02:04:34;3.40;;;1.95;;
79478;SDS011;68943;49.472;17.970;2023-04-15T02:07:00;2.10;;;1.75;;
79478;SDS011;68943;49.472;17.970;2023-04-15T02:09:26;4.13;;;2.00;;
79478;SDS011;68943;49.472;17.970;2023-04-15T02:11:52;4.07;;;2.08;;
79478;SDS011;68943;49.472;17.970;2023-04-15T02:14:18;3.35;;;2.00;;
79478;SDS011;68943;49.472;17.970;2023-04-15T02:16:44;3.10;;;2.17;;
79478;SDS011;68943;49.472;17.970;2023-04-15T02:19:10;2.58;;;1.63;;
79478;SDS011;68943;49.472;17.970;2023-04-15T02:21:37;3.92;;;2.65;;
79478;SDS011;68943;49.472;17.970;2023-04-15T02:24:04;3.25;;;2.08;;
79478;SDS011;68943;49.472;17.970;2023-04-15T02:26:30;3.25;;;2.03;;
79478;SDS011;68943;49.472;17.970;2023-04-15T02:28:57;3.72;;;2.13;;
79478;SDS011;68943;49.472;17.970;2023-04-15T02:31:23;3.58;;;1.90;;
79478;SDS011;68943;49.472;17.970;2023-04-15T02:33:50;4.32;;;2.80;;
79478;SDS011;68943;49.472;17.970;2023-04-15T02:36:16;4.78;;;2.85;;
79478;SDS011;68943;49.472;17.970;2023-04-15T02:38:42;4.20;;;2.80;;
79478;SDS011;68943;49.472;17.970;2023-04-15T02:41:08;5.07;;;2.40;;
79478;SDS011;68943;49.472;17.970;2023-04-15T02:43:34;4.00;;;2.17;;
79478;SDS011;68943;49.472;17.970;2023-04-15T02:46:00;3.13;;;2.20;;
79478;SDS011;68943;49.472;17.970;2023-04-15T02:48:26;3.88;;;2.72;;
79478;SDS011;68943;49.472;17.970;2023-04-15T02:50:52;4.03;;;2.63;;
79478;SDS011;68943;49.472;17.970;2023-04-15T02:53:18;3.60;;;2.40;;
79478;SDS011;68943;49.472;17.970;2023-04-15T02:55:44;4.15;;;2.88;;
79478;SDS011;68943;49.472;17.970;2023-04-15T02:58:10;4.55;;;2.72;;
79478;SDS011;68943;49.472;17.970;2023-04-15T03:00:40;3.90;;;2.13;;
79478;SDS011;68943;49.472;17.970;2023-04-15T03:03:06;2.90;;;1.83;;
79478;SDS011;68943;49.472;17.970;2023-04-15T03:05:32;3.95;;;2.47;;
79478;SDS011;68943;49.472;17.970;2023-04-15T03:07:58;3.83;;;2.13;;
79478;SDS011;68943;49.472;17.970;2023-04-15T03:10:25;5.05;;;2.90;;
79478;SDS011;68943;49.472;17.970;2023-04-15T03:12:51;3.97;;;2.42;;
79478;SDS011;68943;49.472;17.970;2023-04-15T03:15:17;3.53;;;2.70;;
79478;SDS011;68943;49.472;17.970;2023-04-15T03:17:43;3.67;;;2.45;;
79478;SDS011;68943;49.472;17.970;2023-04-15T03:20:09;3.45;;;2.30;;
79478;SDS011;68943;49.472;17.970;2023-04-15T03:22:35;2.95;;;2.40;;
79478;SDS011;68943;49.472;17.970;2023-04-15T03:25:01;3.38;;;2.45;;
79478;SDS011;68943;49.472;17.970;2023-04-15T03:27:27;4.57;;;2.50;;
79478;SDS011;68943;49.472;17.970;2023-04-15T03:29:53;4.65;;;3.22;;
79478;SDS011;68943;49.472;17.970;2023-04-15T03:32:20;4.20;;;3.45;;
79478;SDS011;68943;49.472;17.970;2023-04-15T03:34:46;3.42;;;2.40;;
79478;SDS011;68943;49.472;17.970;2023-04-15T03:37:12;3.63;;;2.53;;
79478;SDS011;68943;49.472;17.970;2023-04-15T03:39:38;3.55;;;1.98;;
79478;SDS011;68943;49.472;17.970;2023-04-15T03:42:04;3.05;;;1.88;;
79478;SDS011;68943;49.472;17.970;2023-04-15T03:44:30;4.32;;;2.60;;
79478;SDS011;68943;49.472;17.970;2023-04-15T03:46:56;3.70;;;1.88;;
79478;SDS011;68943;49.472;17.970;2023-04-15T03:49:22;4.30;;;2.92;;
79478;SDS011;68943;49.472;17.970;2023-04-15T03:51:49;4.07;;;2.53;;
79478;SDS011;68943;49.472;17.970;2023-04-15T03:54:15;4.70;;;3.42;;
79478;SDS011;68943;49.472;17.970;2023-04-15T03:56:47;3.45;;;2.13;;
79478;SDS011;68943;49.472;17.970;2023-04-15T03:59:13;3.38;;;1.90;;
79478;SDS011;68943;49.472;17.970;2023-04-15T04:01:39;3.40;;;2.13;;
79478;SDS011;68943;49.472;17.970;2023-04-15T04:04:05;3.72;;;2.30;;
79478;SDS011;68943;49.472;17.970;2023-04-15T04:06:32;3.30;;;2.38;;
79478;SDS011;68943;49.472;17.970;2023-04-15T04:08:58;3.30;;;2.47;;
79478;SDS011;68943;49.472;17.970;2023-04-15T04:11:25;3.58;;;2.22;;
79478;SDS011;68943;49.472;17.970;2023-04-15T04:13:52;4.60;;;2.42;;
79478;SDS011;68943;49.472;17.970;2023-04-15T04:16:18;2.88;;;2.03;;
79478;SDS011;68943;49.472;17.970;2023-04-15T04:18:44;2.83;;;1.88;;
79478;SDS011;68943;49.472;17.970;2023-04-15T04:21:10;4.05;;;2.20;;
79478;SDS011;68943;49.472;17.970;2023-04-15T04:23:36;3.58;;;1.60;;
79478;SDS011;68943;49.472;17.970;2023-04-15T04:26:02;7.43;;;1.83;;
79478;SDS011;68943;49.472;17.970;2023-04-15T04:28:28;3.80;;;1.98;;
79478;SDS011;68943;49.472;17.970;2023-04-15T04:30:54;3.53;;;1.42;;
79478;SDS011;68943;49.472;17.970;2023-04-15T04:33:20;1.52;;;1.35;;
79478;SDS011;68943;49.472;17.970;2023-04-15T04:35:46;1.83;;;1.23;;
79478;SDS011;68943;49.472;17.970;2023-04-15T04:38:12;2.53;;;1.42;;
79478;SDS011;68943;49.472;17.970;2023-04-15T04:40:38;2.13;;;0.95;;
79478;SDS011;68943;49.472;17.970;2023-04-15T04:43:05;5.47;;;1.70;;
79478;SDS011;68943;49.472;17.970;2023-04-15T04:45:31;2.53;;;1.70;;
79478;SDS011;68943;49.472;17.970;2023-04-15T04:47:57;2.67;;;1.95;;
79478;SDS011;68943;49.472;17.970;2023-04-15T04:50:23;2.65;;;1.73;;
79478;SDS011;68943;49.472;17.970;2023-04-15T04:52:49;3.88;;;2.03;;
79478;SDS011;68943;49.472;17.970;2023-04-15T04:55:15;2.75;;;2.10;;
79478;SDS011;68943;49.472;17.970;2023-04-15T04:57:41;2.80;;;1.98;;
79478;SDS011;68943;49.472;17.970;2023-04-15T05:00:08;3.20;;;2.05;;
79478;SDS011;68943;49.472;17.970;2023-04-15T05:02:34;3.45;;;2.22;;
79478;SDS011;68943;49.472;17.970;2023-04-15T05:05:00;2.42;;;1.70;;
79478;SDS011;68943;49.472;17.970;2023-04-15T05:07:26;2.22;;;1.20;;
79478;SDS011;68943;49.472;17.970;2023-04-15T05:09:52;2.65;;;1.80;;
79478;SDS011;68943;49.472;17.970;2023-04-15T05:12:18;3.28;;;1.67;;
79478;SDS011;68943;49.472;17.970;2023-04-15T05:14:44;4.75;;;1.80;;
79478;SDS011;68943;49.472;17.970;2023-04-15T05:17:10;5.22;;;2.20;;
79478;SDS011;68943;49.472;17.970;2023-04-15T05:19:36;3.05;;;1.95;;
79478;SDS011;68943;49.472;17.970;2023-04-15T05:22:02;4.32;;;1.77;;
79478;SDS011;68943;49.472;17.970;2023-04-15T05:24:28;3.30;;;2.08;;
79478;SDS011;68943;49.472;17.970;2023-04-15T05:26:55;5.07;;;2.20;;
79478;SDS011;68943;49.472;17.970;2023-04-15T05:29:21;3.70;;;2.40;;
79478;SDS011;68943;49.472;17.970;2023-04-15T05:31:47;3.60;;;2.42;;
79478;SDS011;68943;49.472;17.970;2023-04-15T05:34:13;3.60;;;2.42;;
79478;SDS011;68943;49.472;17.970;2023-04-15T05:36:40;3.58;;;2.17;;
79478;SDS011;68943;49.472;17.970;2023-04-15T05:39:07;3.42;;;2.63;;
79478;SDS011;68943;49.472;17.970;2023-04-15T05:41:33;4.32;;;3.15;;
79478;SDS011;68943;49.472;17.970;2023-04-15T05:44:00;4.57;;;3.25;;
79478;SDS011;68943;49.472;17.970;2023-04-15T05:46:26;4.32;;;2.25;;
79478;SDS011;68943;49.472;17.970;2023-04-15T05:48:52;5.40;;;2.90;;
79478;SDS011;68943;49.472;17.970;2023-04-15T05:51:18;5.50;;;3.38;;
79478;SDS011;68943;49.472;17.970;2023-04-15T05:53:44;7.22;;;3.72;;
79478;SDS011;68943;49.472;17.970;2023-04-15T05:56:10;4.80;;;3.17;;
79478;SDS011;68943;49.472;17.970;2023-04-15T05:58:36;4.10;;;2.50;;
79478;SDS011;68943;49.472;17.970;2023-04-15T06:01:02;4.32;;;2.92;;
79478;SDS011;68943;49.472;17.970;2023-04-15T06:03:29;6.78;;;4.20;;
79478;SDS011;68943;49.472;17.970;2023-04-15T06:05:55;5.90;;;4.25;;
79478;SDS011;68943;49.472;17.970;2023-04-15T06:08:21;6.15;;;4.15;;
79478;SDS011;68943;49.472;17.970;2023-04-15T06:10:47;6.05;;;5.03;;
79478;SDS011;68943;49.472;17.970;2023-04-15T06:13:13;8.30;;;4.90;;
79478;SDS011;68943;49.472;17.970;2023-04-15T06:15:40;5.93;;;4.15;;
79478;SDS011;68943;49.472;17.970;2023-04-15T06:18:07;4.32;;;3.45;;
79478;SDS011;68943;49.472;17.970;2023-04-15T06:20:33;5.60;;;4.43;;
79478;SDS011;68943;49.472;17.970;2023-04-15T06:22:59;4.90;;;3.28;;
79478;SDS011;68943;49.472;17.970;2023-04-15T06:25:25;3.60;;;2.47;;
79478;SDS011;68943;49.472;17.970;2023-04-15T06:27:51;3.80;;;2.75;;
79478;SDS011;68943;49.472;17.970;2023-04-15T06:30:17;2.58;;;2.20;;
79478;SDS011;68943;49.472;17.970;2023-04-15T06:32:43;2.00;;;1.70;;
79478;SDS011;68943;49.472;17.970;2023-04-15T06:35:10;3.55;;;1.85;;
79478;SDS011;68943;49.472;17.970;2023-04-15T06:37:36;2.70;;;1.95;;
79478;SDS011;68943;49.472;17.970;2023-04-15T06:40:02;2.30;;;1.88;;
79478;SDS011;68943;49.472;17.970;2023-04-15T06:42:29;2.50;;;1.80;;
79478;SDS011;68943;49.472;17.970;2023-04-15T06:44:55;2.15;;;1.50;;
79478;SDS011;68943;49.472;17.970;2023-04-15T06:47:21;2.22;;;1.75;;
79478;SDS011;68943;49.472;17.970;2023-04-15T06:49:47;3.72;;;1.98;;
79478;SDS011;68943;49.472;17.970;2023-04-15T06:52:13;2.60;;;1.98;;
79478;SDS011;68943;49.472;17.970;2023-04-15T06:54:40;3.45;;;2.83;;
79478;SDS011;68943;49.472;17.970;2023-04-15T06:57:06;3.67;;;2.90;;
79478;SDS011;68943;49.472;17.970;2023-04-15T06:59:33;3.42;;;2.40;;
79478;SDS011;68943;49.472;17.970;2023-04-15T07:02:00;3.22;;;2.38;;
79478;SDS011;68943;49.472;17.970;2023-04-15T07:04:26;2.50;;;1.88;;
79478;SDS011;68943;49.472;17.970;2023-04-15T07:06:55;4.20;;;2.45;;
79478;SDS011;68943;49.472;17.970;2023-04-15T07:09:22;3.10;;;2.03;;
79478;SDS011;68943;49.472;17.970;2023-04-15T07:11:48;2.30;;;1.65;;
79478;SDS011;68943;49.472;17.970;2023-04-15T07:14:15;2.85;;;1.98;;
79478;SDS011;68943;49.472;17.970;2023-04-15T07:16:41;3.60;;;1.80;;
79478;SDS011;68943;49.472;17.970;2023-04-15T07:19:07;1.95;;;1.60;;
79478;SDS011;68943;49.472;17.970;2023-04-15T07:21:33;3.05;;;2.10;;
79478;SDS011;68943;49.472;17.970;2023-04-15T07:23:59;2.55;;;1.48;;
79478;SDS011;68943;49.472;17.970;2023-04-15T07:26:25;3.13;;;2.30;;
79478;SDS011;68943;49.472;17.970;2023-04-15T07:28:51;1.55;;;1.00;;
79478;SDS011;68943;49.472;17.970;2023-04-15T07:31:17;2.05;;;1.23;;
79478;SDS011;68943;49.472;17.970;2023-04-15T07:33:43;1.73;;;1.10;;
79478;SDS011;68943;49.472;17.970;2023-04-15T07:36:10;2.42;;;1.88;;
79478;SDS011;68943;49.472;17.970;2023-04-15T07:38:36;1.52;;;1.13;;
79478;SDS011;68943;49.472;17.970;2023-04-15T07:41:02;1.77;;;1.63;;
79478;SDS011;68943;49.472;17.970;2023-04-15T07:43:28;1.08;;;0.98;;
79478;SDS011;68943;49.472;17.970;2023-04-15T07:45:54;2.38;;;1.38;;
79478;SDS011;68943;49.472;17.970;2023-04-15T07:48:20;1.48;;;1.30;;
79478;SDS011;68943;49.472;17.970;2023-04-15T07:50:47;1.63;;;1.48;;
79478;SDS011;68943;49.472;17.970;2023-04-15T07:53:13;1.75;;;1.33;;
79478;SDS011;68943;49.472;17.970;2023-04-15T07:55:39;2.17;;;1.38;;
79478;SDS011;68943;49.472;17.970;2023-04-15T07:58:05;2.03;;;1.55;;
79478;SDS011;68943;49.472;17.970;2023-04-15T08:00:31;1.33;;;1.17;;
79478;SDS011;68943;49.472;17.970;2023-04-15T08:02:57;3.00;;;1.02;;
79478;SDS011;68943;49.472;17.970;2023-04-15T08:05:23;3.15;;;1.63;;
79478;SDS011;68943;49.472;17.970;2023-04-15T08:07:49;1.38;;;0.98;;
79478;SDS011;68943;49.472;17.970;2023-04-15T08:10:16;1.60;;;0.50;;
79478;SDS011;68943;49.472;17.970;2023-04-15T08:12:42;1.20;;;0.85;;
79478;SDS011;68943;49.472;17.970;2023-04-15T08:15:08;1.10;;;0.95;;
79478;SDS011;68943;49.472;17.970;2023-04-15T08:17:34;1.85;;;1.75;;
79478;SDS011;68943;49.472;17.970;2023-04-15T08:20:00;2.15;;;1.58;;
79478;SDS011;68943;49.472;17.970;2023-04-15T08:22:26;2.28;;;1.23;;
79478;SDS011;68943;49.472;17.970;2023-04-15T08:24:52;1.98;;;1.73;;
79478;SDS011;68943;49.472;17.970;2023-04-15T08:27:18;1.60;;;1.00;;
79478;SDS011;68943;49.472;17.970;2023-04-15T08:29:44;2.17;;;1.38;;
79478;SDS011;68943;49.472;17.970;2023-04-15T08:32:12;1.42;;;1.13;;
79478;SDS011;68943;49.472;17.970;2023-04-15T08:34:38;2.83;;;1.40;;
79478;SDS011;68943;49.472;17.970;2023-04-15T08:37:04;2.03;;;0.93;;
79478;SDS011;68943;49.472;17.970;2023-04-15T08:39:31;2.65;;;0.93;;
79478;SDS011;68943;49.472;17.970;2023-04-15T08:42:01;1.75;;;1.05;;
79478;SDS011;68943;49.472;17.970;2023-04-15T08:44:28;1.63;;;1.52;;
79478;SDS011;68943;49.472;17.970;2023-04-15T08:46:56;1.40;;;1.30;;
79478;SDS011;68943;49.472;17.970;2023-04-15T08:49:26;2.28;;;1.13;;
79478;SDS011;68943;49.472;17.970;2023-04-15T08:51:52;1.50;;;1.20;;
79478;SDS011;68943;49.472;17.970;2023-04-15T08:54:20;1.77;;;1.40;;
79478;SDS011;68943;49.472;17.970;2023-04-15T08:56:47;1.33;;;1.13;;
79478;SDS011;68943;49.472;17.970;2023-04-15T08:59:13;1.88;;;1.23;;
79478;SDS011;68943;49.472;17.970;2023-04-15T09:01:40;1.10;;;0.80;;
79478;SDS011;68943;49.472;17.970;2023-04-15T09:04:06;1.08;;;0.73;;
79478;SDS011;68943;49.472;17.970;2023-04-15T09:06:33;3.30;;;1.15;;
79478;SDS011;68943;49.472;17.970;2023-04-15T09:08:59;1.23;;;0.73;;
79478;SDS011;68943;49.472;17.970;2023-04-15T09:11:25;1.50;;;1.30;;
79478;SDS011;68943;49.472;17.970;2023-04-15T09:13:51;0.98;;;0.50;;
79478;SDS011;68943;49.472;17.970;2023-04-15T09:16:17;1.33;;;1.13;;
79478;SDS011;68943;49.472;17.970;2023-04-15T09:18:44;1.20;;;0.70;;
79478;SDS011;68943;49.472;17.970;2023-04-15T09:21:11;1.50;;;0.57;;
79478;SDS011;68943;49.472;17.970;2023-04-15T09:23:38;1.90;;;1.45;;
79478;SDS011;68943;49.472;17.970;2023-04-15T09:26:06;2.70;;;1.02;;
79478;SDS011;68943;49.472;17.970;2023-04-15T09:28:32;1.90;;;0.80;;
79478;SDS011;68943;49.472;17.970;2023-04-15T09:31:00;2.58;;;0.77;;
79478;SDS011;68943;49.472;17.970;2023-04-15T09:33:27;2.63;;;0.65;;
79478;SDS011;68943;49.472;17.970;2023-04-15T09:38:23;1.10;;;0.82;;
79478;SDS011;68943;49.472;17.970;2023-04-15T09:40:49;0.70;;;0.50;;
79478;SDS011;68943;49.472;17.970;2023-04-15T09:43:15;1.08;;;0.82;;
79478;SDS011;68943;49.472;17.970;2023-04-15T09:48:18;1.20;;;0.82;;
79478;SDS011;68943;49.472;17.970;2023-04-15T09:50:45;2.83;;;1.08;;
79478;SDS011;68943;49.472;17.970;2023-04-15T09:53:16;1.40;;;0.80;;
79478;SDS011;68943;49.472;17.970;2023-04-15T09:55:56;1.20;;;0.82;;
79478;SDS011;68943;49.472;17.970;2023-04-15T10:00:49;1.70;;;1.15;;
79478;SDS011;68943;49.472;17.970;2023-04-15T10:03:20;1.55;;;0.77;;
79478;SDS011;68943;49.472;17.970;2023-04-15T10:05:47;1.75;;;0.93;;
79478;SDS011;68943;49.472;17.970;2023-04-15T10:08:17;0.80;;;0.60;;
79478;SDS011;68943;49.472;17.970;2023-04-15T10:10:44;1.40;;;1.17;;
79478;SDS011;68943;49.472;17.970;2023-04-15T10:13:16;1.30;;;1.05;;
79478;SDS011;68943;49.472;17.970;2023-04-15T10:15:43;1.50;;;1.02;;
79478;SDS011;68943;49.472;17.970;2023-04-15T10:18:11;0.77;;;0.63;;
79478;SDS011;68943;49.472;17.970;2023-04-15T10:20:41;1.30;;;0.90;;
79478;SDS011;68943;49.472;17.970;2023-04-15T10:23:08;0.85;;;0.82;;
79478;SDS011;68943;49.472;17.970;2023-04-15T10:25:34;2.03;;;0.77;;
79478;SDS011;68943;49.472;17.970;2023-04-15T10:28:01;1.58;;;1.33;;
79478;SDS011;68943;49.472;17.970;2023-04-15T10:30:27;1.52;;;1.05;;
79478;SDS011;68943;49.472;17.970;2023-04-15T10:32:55;0.82;;;0.70;;
79478;SDS011;68943;49.472;17.970;2023-04-15T10:35:21;1.45;;;1.33;;
79478;SDS011;68943;49.472;17.970;2023-04-15T10:37:47;0.88;;;0.80;;
79478;SDS011;68943;49.472;17.970;2023-04-15T10:40:23;1.88;;;1.77;;
79478;SDS011;68943;49.472;17.970;2023-04-15T10:43:02;2.42;;;1.15;;
79478;SDS011;68943;49.472;17.970;2023-04-15T10:47:55;1.17;;;0.80;;
79478;SDS011;68943;49.472;17.970;2023-04-15T10:50:21;1.33;;;1.00;;
79478;SDS011;68943;49.472;17.970;2023-04-15T10:52:49;1.70;;;1.00;;
79478;SDS011;68943;49.472;17.970;2023-04-15T10:55:20;0.90;;;0.70;;
79478;SDS011;68943;49.472;17.970;2023-04-15T10:57:48;1.05;;;0.70;;
79478;SDS011;68943;49.472;17.970;2023-04-15T11:00:17;1.65;;;0.70;;
79478;SDS011;68943;49.472;17.970;2023-04-15T11:05:13;0.75;;;0.63;;
79478;SDS011;68943;49.472;17.970;2023-04-15T11:07:45;1.08;;;0.80;;
79478;SDS011;68943;49.472;17.970;2023-04-15T11:12:39;2.38;;;1.27;;
79478;SDS011;68943;49.472;17.970;2023-04-15T11:17:50;0.93;;;0.85;;
79478;SDS011;68943;49.472;17.970;2023-04-15T11:20:16;1.10;;;0.95;;
79478;SDS011;68943;49.472;17.970;2023-04-15T11:22:49;1.48;;;0.90;;
79478;SDS011;68943;49.472;17.970;2023-04-15T11:25:22;1.52;;;1.33;;
79478;SDS011;68943;49.472;17.970;2023-04-15T11:27:49;2.45;;;0.70;;
79478;SDS011;68943;49.472;17.970;2023-04-15T11:30:17;1.52;;;0.93;;
79478;SDS011;68943;49.472;17.970;2023-04-15T11:32:44;1.63;;;0.88;;
79478;SDS011;68943;49.472;17.970;2023-04-15T11:35:10;2.83;;;0.88;;
79478;SDS011;68943;49.472;17.970;2023-04-15T11:37:36;2.08;;;0.95;;
79478;SDS011;68943;49.472;17.970;2023-04-15T11:40:02;1.63;;;1.10;;
79478;SDS011;68943;49.472;17.970;2023-04-15T11:42:28;1.50;;;1.30;;
79478;SDS011;68943;49.472;17.970;2023-04-15T11:45:07;1.70;;;1.05;;
79478;SDS011;68943;49.472;17.970;2023-04-15T11:47:34;1.75;;;1.10;;
79478;SDS011;68943;49.472;17.970;2023-04-15T11:50:17;1.30;;;0.65;;
79478;SDS011;68943;49.472;17.970;2023-04-15T11:52:56;1.98;;;1.23;;
79478;SDS011;68943;49.472;17.970;2023-04-15T11:55:23;1.65;;;1.17;;
79478;SDS011;68943;49.472;17.970;2023-04-15T11:57:49;2.45;;;1.58;;
79478;SDS011;68943;49.472;17.970;2023-04-15T12:00:15;1.40;;;1.30;;
79478;SDS011;68943;49.472;17.970;2023-04-15T12:02:42;1.58;;;0.90;;
79478;SDS011;68943;49.472;17.970;2023-04-15T12:05:08;1.85;;;1.52;;
79478;SDS011;68943;49.472;17.970;2023-04-15T12:10:19;2.40;;;0.77;;
79478;SDS011;68943;49.472;17.970;2023-04-15T12:12:48;0.77;;;0.70;;
79478;SDS011;68943;49.472;17.970;2023-04-15T12:15:14;1.88;;;1.50;;
79478;SDS011;68943;49.472;17.970;2023-04-15T12:17:40;1.95;;;1.45;;
79478;SDS011;68943;49.472;17.970;2023-04-15T12:20:07;1.02;;;0.93;;
79478;SDS011;68943;49.472;17.970;2023-04-15T12:22:36;3.47;;;2.17;;
79478;SDS011;68943;49.472;17.970;2023-04-15T12:27:28;2.15;;;1.42;;
79478;SDS011;68943;49.472;17.970;2023-04-15T12:30:03;6.75;;;5.88;;
79478;SDS011;68943;49.472;17.970;2023-04-15T12:32:30;4.90;;;3.65;;
79478;SDS011;68943;49.472;17.970;2023-04-15T12:34:59;1.88;;;1.27;;
79478;SDS011;68943;49.472;17.970;2023-04-15T12:37:25;1.75;;;1.25;;
79478;SDS011;68943;49.472;17.970;2023-04-15T12:39:51;2.58;;;1.83;;
79478;SDS011;68943;49.472;17.970;2023-04-15T12:42:18;2.17;;;1.40;;
79478;SDS011;68943;49.472;17.970;2023-04-15T12:44:45;5.38;;;2.30;;
79478;SDS011;68943;49.472;17.970;2023-04-15T12:47:11;1.80;;;1.00;;
79478;SDS011;68943;49.472;17.970;2023-04-15T12:49:37;2.40;;;1.30;;
79478;SDS011;68943;49.472;17.970;2023-04-15T12:52:03;1.92;;;1.38;;
79478;SDS011;68943;49.472;17.970;2023-04-15T12:54:30;7.35;;;4.35;;
79478;SDS011;68943;49.472;17.970;2023-04-15T12:56:56;2.28;;;1.38;;
79478;SDS011;68943;49.472;17.970;2023-04-15T12:59:22;1.65;;;1.30;;
79478;SDS011;68943;49.472;17.970;2023-04-15T13:01:49;2.10;;;1.65;;
79478;SDS011;68943;49.472;17.970;2023-04-15T13:04:18;2.13;;;1.15;;
79478;SDS011;68943;49.472;17.970;2023-04-15T13:06:45;1.30;;;0.88;;
79478;SDS011;68943;49.472;17.970;2023-04-15T13:09:11;2.70;;;1.48;;
79478;SDS011;68943;49.472;17.970;2023-04-15T13:11:37;6.20;;;3.55;;
79478;SDS011;68943;49.472;17.970;2023-04-15T13:14:03;5.57;;;3.15;;
79478;SDS011;68943;49.472;17.970;2023-04-15T13:16:30;3.17;;;2.00;;
79478;SDS011;68943;49.472;17.970;2023-04-15T13:19:00;2.78;;;1.58;;
79478;SDS011;68943;49.472;17.970;2023-04-15T13:21:26;2.72;;;1.35;;
79478;SDS011;68943;49.472;17.970;2023-04-15T13:23:52;2.72;;;1.83;;
79478;SDS011;68943;49.472;17.970;2023-04-15T13:26:18;2.25;;;1.63;;
79478;SDS011;68943;49.472;17.970;2023-04-15T13:28:45;3.90;;;2.40;;
79478;SDS011;68943;49.472;17.970;2023-04-15T13:31:11;6.55;;;3.60;;
79478;SDS011;68943;49.472;17.970;2023-04-15T13:33:37;3.28;;;1.75;;
79478;SDS011;68943;49.472;17.970;2023-04-15T13:36:05;2.05;;;1.95;;
79478;SDS011;68943;49.472;17.970;2023-04-15T13:38:34;2.47;;;1.23;;
79478;SDS011;68943;49.472;17.970;2023-04-15T13:41:00;3.17;;;0.88;;
79478;SDS011;68943;49.472;17.970;2023-04-15T13:43:26;3.25;;;1.20;;
79478;SDS011;68943;49.472;17.970;2023-04-15T13:45:52;2.25;;;1.25;;
79478;SDS011;68943;49.472;17.970;2023-04-15T13:48:18;9.13;;;6.55;;
79478;SDS011;68943;49.472;17.970;2023-04-15T13:50:44;2.00;;;1.15;;
79478;SDS011;68943;49.472;17.970;2023-04-15T13:53:10;5.03;;;3.53;;
79478;SDS011;68943;49.472;17.970;2023-04-15T13:55:37;3.03;;;1.67;;
79478;SDS011;68943;49.472;17.970;2023-04-15T13:58:06;3.70;;;1.73;;
79478;SDS011;68943;49.472;17.970;2023-04-15T14:00:32;3.15;;;2.08;;
79478;SDS011;68943;49.472;17.970;2023-04-15T14:02:58;5.20;;;3.13;;
79478;SDS011;68943;49.472;17.970;2023-04-15T14:05:24;5.43;;;2.97;;
79478;SDS011;68943;49.472;17.970;2023-04-15T14:07:50;7.40;;;3.90;;
79478;SDS011;68943;49.472;17.970;2023-04-15T14:10:16;6.82;;;3.53;;
79478;SDS011;68943;49.472;17.970;2023-04-15T14:12:42;6.95;;;3.47;;
79478;SDS011;68943;49.472;17.970;2023-04-15T14:15:08;5.95;;;3.13;;
79478;SDS011;68943;49.472;17.970;2023-04-15T14:17:34;8.45;;;4.75;;
79478;SDS011;68943;49.472;17.970;2023-04-15T14:20:00;15.27;;;5.40;;
79478;SDS011;68943;49.472;17.970;2023-04-15T14:22:26;14.45;;;6.32;;
79478;SDS011;68943;49.472;17.970;2023-04-15T14:24:52;11.55;;;5.03;;
79478;SDS011;68943;49.472;17.970;2023-04-15T14:27:19;2.72;;;1.38;;
79478;SDS011;68943;49.472;17.970;2023-04-15T14:29:45;2.25;;;1.58;;
79478;SDS011;68943;49.472;17.970;2023-04-15T14:32:12;2.47;;;1.08;;
79478;SDS011;68943;49.472;17.970;2023-04-15T14:34:38;1.73;;;0.77;;
79478;SDS011;68943;49.472;17.970;2023-04-15T14:37:04;2.90;;;1.73;;
79478;SDS011;68943;49.472;17.970;2023-04-15T14:39:30;2.08;;;1.27;;
79478;SDS011;68943;49.472;17.970;2023-04-15T14:41:57;2.00;;;1.02;;
79478;SDS011;68943;49.472;17.970;2023-04-15T14:44:23;1.70;;;0.57;;
79478;SDS011;68943;49.472;17.970;2023-04-15T14:46:49;2.08;;;0.93;;
79478;SDS011;68943;49.472;17.970;2023-04-15T14:49:15;1.17;;;0.70;;
79478;SDS011;68943;49.472;17.970;2023-04-15T14:51:41;1.73;;;0.70;;